KNUQ/NUQ METAR and TAF weather

Enter ICAO airport designator
Station Type Date Time Source
KNUQ METAR 2024/07/23 04:50 UTC NOAA

KNUQ 230450Z AUTO 00000KT 10SM CLR 21/14 A2982 RMK AO2


Station Type Date Time Source
KNUQ Decoded METAR 2024/07/23 04:50 UTC NOAA

MOFFETT FIELD, CA, United States (KNUQ) 37-26N 122-03W 19M
Jul 23, 2024 - 12:50 AM EDT / 2024.07.23 0450 UTC
Wind: Calm:0
Visibility: 10 mile(s):0
Sky conditions: clear
Temperature: 69 F (21 C)
Dew Point: 57 F (14 C)
Relative Humidity: 64%
Pressure (altimeter): 29.82 in. Hg (1009 hPa)
ob: KNUQ 230450Z AUTO 00000KT 10SM CLR 21/14 A2982 RMK AO2
cycle: 5

Station Type Date Time Source
KNUQ TAF 2018/01/28 15:27 UTC NOAA